Aegean Orion — SVA2487 — position and weather

sailwx.info

Track history (hours):
 
Tides and Currents Weather Stations Pressure Air Temp Water Temp Dewpoint Dewpoint Depression Visibility Wind Speed Wind Dir Waves Ship Positions

Aegean Orion

Last reported at 2014-Aug-27 10:08 UTC. Time now 2014-Aug-28 03:23 UTC.
Position N 38°02' E 023°32'.

Length 52 m; draft 2.4 m.

Type: Ship. MMSI: 239550200.

Date/timePositionNaut miles runAvg speedWind from/ knotsBaromVisibWave heightAir tempDewpointWater temp
2014-Aug-27 10:08N 38°02' E 023°32'0 0.0
2014-Aug-27 09:23N 38°02' E 023°32'1 1.2
2014-Aug-27 08:33N 38°02' E 023°31'0 0.0
2014-Aug-27 07:30N 38°02' E 023°31'0 0.0
2014-Aug-27 06:33N 38°02' E 023°31'0 0.0
2014-Aug-27 05:31N 38°02' E 023°31'0 0.0
2014-Aug-27 04:32N 38°02' E 023°31'1 0.1
2014-Aug-26 09:33N 38°02' E 023°32'0 0.0
2014-Aug-26 08:29N 38°02' E 023°32'0 0.0
2014-Aug-26 07:30N 38°02' E 023°32'0 0.0
2014-Aug-26 06:33N 38°02' E 023°32'0 0.0
2014-Aug-26 05:32N 38°02' E 023°32'4 4.2
2014-Aug-26 04:33N 37°58' E 023°33'1 1.4
2014-Aug-26 03:34N 37°57' E 023°34'0 0.0
2014-Aug-26 02:34N 37°57' E 023°34'0 0.0
2014-Aug-26 01:33N 37°57' E 023°34'0 0.0
2014-Aug-26 00:33N 37°57' E 023°34'0 0.0
2014-Aug-25 23:33N 37°57' E 023°34'0 0.0
2014-Aug-25 22:33N 37°57' E 023°34'0 0.0
2014-Aug-25 21:33N 37°57' E 023°34'0 0.0
2014-Aug-25 20:33N 37°57' E 023°34'2 2.2
2014-Aug-25 19:34N 37°56' E 023°37'2 1.6
2014-Aug-25 18:33N 37°57' E 023°38'0 0.0
2014-Aug-25 17:33N 37°57' E 023°38'2 1.7
2014-Aug-25 16:34N 37°57' E 023°36'5 4.9
2014-Aug-25 15:28N 38°01' E 023°32'2 0.8
2014-Aug-25 13:25N 38°02' E 023°32'0 0.0
2014-Aug-25 12:32N 38°02' E 023°32'0 0.0
2014-Aug-25 11:26N 38°02' E 023°32'0 0.0
2014-Aug-25 10:31N 38°02' E 023°32'0 0.0
2014-Aug-25 09:32N 38°02' E 023°32'  
2014-Aug-22 11:28N 38°02' E 023°32'5 5.9
2014-Aug-22 10:33N 37°57' E 023°34'0 0.1
2014-Aug-22 09:33N 37°57' E 023°34'4 3.7
2014-Aug-22 08:31N 38°01' E 023°32'2 1.9
2014-Aug-22 07:27N 38°02' E 023°31'0 0.0
2014-Aug-22 06:33N 38°02' E 023°31'0 0.0
2014-Aug-22 05:20N 38°02' E 023°31'0 0.1
2014-Aug-22 04:32N 38°02' E 023°31'1 1.0
2014-Aug-22 03:33N 38°02' E 023°32'0 0.0
2014-Aug-21 13:33N 38°02' E 023°32'0 0.0
2014-Aug-21 12:33N 38°02' E 023°32'6 5.7
2014-Aug-21 11:33N 37°57' E 023°35'2 2.1
2014-Aug-21 10:33N 37°56' E 023°37'0 0.0
2014-Aug-21 09:33N 37°56' E 023°37'1 0.7
2014-Aug-21 08:33N 37°57' E 023°38'0 0.0
2014-Aug-21 07:33N 37°57' E 023°38'0 0.0
2014-Aug-21 06:33N 37°57' E 023°38'2 1.6
2014-Aug-21 05:33N 37°57' E 023°36'6 6.2
2014-Aug-21 04:33N 38°02' E 023°32'0 0.4
2014-Aug-21 03:33N 38°02' E 023°32'1 0.1
2014-Aug-20 16:33N 38°02' E 023°31'0 0.1
2014-Aug-20 15:33N 38°02' E 023°31'0 0.0
2014-Aug-20 14:31N 38°02' E 023°31'0 0.0
2014-Aug-20 12:32N 38°02' E 023°31'1 0.7
2014-Aug-20 11:33N 38°02' E 023°31'0 0.0
2014-Aug-20 10:33N 38°02' E 023°31'0 0.0
2014-Aug-20 09:24N 38°02' E 023°31'0 0.0
2014-Aug-20 08:10N 38°02' E 023°31'0 0.0
2014-Aug-20 07:30N 38°02' E 023°31'0 0.0
2014-Aug-20 04:24N 38°02' E 023°31'6 0.3
2014-Aug-19 08:33N 37°57' E 023°36'1 1.3
2014-Aug-19 07:33N 37°56' E 023°37'0 0.0
2014-Aug-19 06:33N 37°56' E 023°38'0 0.0
2014-Aug-19 05:33N 37°56' E 023°38'2 1.9
2014-Aug-19 04:33N 37°57' E 023°35'1 0.9
2014-Aug-19 03:33N 37°57' E 023°34'0 0.0
2014-Aug-19 02:33N 37°57' E 023°34'0 0.0
2014-Aug-19 01:33N 37°57' E 023°34'0 0.0
2014-Aug-19 00:32N 37°57' E 023°34'0 0.0
2014-Aug-18 23:33N 37°57' E 023°34'0 0.0
2014-Aug-18 22:33N 37°57' E 023°34'0 0.0
2014-Aug-18 21:33N 37°57' E 023°34'0 0.0
2014-Aug-18 20:33N 37°57' E 023°34'0 0.0
2014-Aug-18 19:33N 37°57' E 023°34'2 2.1
2014-Aug-18 18:33N 37°57' E 023°36'2 1.6
2014-Aug-18 17:33N 37°57' E 023°38'2 1.6
2014-Aug-18 16:33N 37°57' E 023°36'  
Track history (hours):
 
Tides and Currents Weather Stations Pressure Air Temp Water Temp Dewpoint Dewpoint Depression Visibility Wind Speed Wind Dir Waves Ship Positions

Aegean Orion

Last reported at 2014-Aug-27 10:08 UTC. Time now 2014-Aug-28 03:23 UTC.
Position N 38°02' E 023°32'.

Length 52 m; draft 2.4 m.

Type: Ship. MMSI: 239550200.

Date/timePositionNaut miles runAvg speedWind from/ knotsBaromVisibWave heightAir tempDewpointWater temp
2014-Aug-27 10:08N 38°02' E 023°32'0 0.0
2014-Aug-27 09:23N 38°02' E 023°32'1 1.2
2014-Aug-27 08:33N 38°02' E 023°31'0 0.0
2014-Aug-27 07:30N 38°02' E 023°31'0 0.0
2014-Aug-27 06:33N 38°02' E 023°31'0 0.0
2014-Aug-27 05:31N 38°02' E 023°31'0 0.0
2014-Aug-27 04:32N 38°02' E 023°31'1 0.1
2014-Aug-26 09:33N 38°02' E 023°32'0 0.0
2014-Aug-26 08:29N 38°02' E 023°32'0 0.0
2014-Aug-26 07:30N 38°02' E 023°32'0 0.0
2014-Aug-26 06:33N 38°02' E 023°32'0 0.0
2014-Aug-26 05:32N 38°02' E 023°32'4 4.2
2014-Aug-26 04:33N 37°58' E 023°33'1 1.4
2014-Aug-26 03:34N 37°57' E 023°34'0 0.0
2014-Aug-26 02:34N 37°57' E 023°34'0 0.0
2014-Aug-26 01:33N 37°57' E 023°34'0 0.0
2014-Aug-26 00:33N 37°57' E 023°34'0 0.0
2014-Aug-25 23:33N 37°57' E 023°34'0 0.0
2014-Aug-25 22:33N 37°57' E 023°34'0 0.0
2014-Aug-25 21:33N 37°57' E 023°34'0 0.0
2014-Aug-25 20:33N 37°57' E 023°34'2 2.2
2014-Aug-25 19:34N 37°56' E 023°37'2 1.6
2014-Aug-25 18:33N 37°57' E 023°38'0 0.0
2014-Aug-25 17:33N 37°57' E 023°38'2 1.7
2014-Aug-25 16:34N 37°57' E 023°36'5 4.9
2014-Aug-25 15:28N 38°01' E 023°32'2 0.8
2014-Aug-25 13:25N 38°02' E 023°32'0 0.0
2014-Aug-25 12:32N 38°02' E 023°32'0 0.0
2014-Aug-25 11:26N 38°02' E 023°32'0 0.0
2014-Aug-25 10:31N 38°02' E 023°32'0 0.0
2014-Aug-25 09:32N 38°02' E 023°32'  
2014-Aug-22 11:28N 38°02' E 023°32'5 5.9
2014-Aug-22 10:33N 37°57' E 023°34'0 0.1
2014-Aug-22 09:33N 37°57' E 023°34'4 3.7
2014-Aug-22 08:31N 38°01' E 023°32'2 1.9
2014-Aug-22 07:27N 38°02' E 023°31'0 0.0
2014-Aug-22 06:33N 38°02' E 023°31'0 0.0
2014-Aug-22 05:20N 38°02' E 023°31'0 0.1
2014-Aug-22 04:32N 38°02' E 023°31'1 1.0
2014-Aug-22 03:33N 38°02' E 023°32'0 0.0
2014-Aug-21 13:33N 38°02' E 023°32'0 0.0
2014-Aug-21 12:33N 38°02' E 023°32'6 5.7
2014-Aug-21 11:33N 37°57' E 023°35'2 2.1
2014-Aug-21 10:33N 37°56' E 023°37'0 0.0
2014-Aug-21 09:33N 37°56' E 023°37'1 0.7
2014-Aug-21 08:33N 37°57' E 023°38'0 0.0
2014-Aug-21 07:33N 37°57' E 023°38'0 0.0
2014-Aug-21 06:33N 37°57' E 023°38'2 1.6
2014-Aug-21 05:33N 37°57' E 023°36'6 6.2
2014-Aug-21 04:33N 38°02' E 023°32'0 0.4
2014-Aug-21 03:33N 38°02' E 023°32'1 0.1
2014-Aug-20 16:33N 38°02' E 023°31'0 0.1
2014-Aug-20 15:33N 38°02' E 023°31'0 0.0
2014-Aug-20 14:31N 38°02' E 023°31'0 0.0
2014-Aug-20 12:32N 38°02' E 023°31'1 0.7
2014-Aug-20 11:33N 38°02' E 023°31'0 0.0
2014-Aug-20 10:33N 38°02' E 023°31'0 0.0
2014-Aug-20 09:24N 38°02' E 023°31'0 0.0
2014-Aug-20 08:10N 38°02' E 023°31'0 0.0
2014-Aug-20 07:30N 38°02' E 023°31'0 0.0
2014-Aug-20 04:24N 38°02' E 023°31'6 0.3
2014-Aug-19 08:33N 37°57' E 023°36'1 1.3
2014-Aug-19 07:33N 37°56' E 023°37'0 0.0
2014-Aug-19 06:33N 37°56' E 023°38'0 0.0
2014-Aug-19 05:33N 37°56' E 023°38'2 1.9
2014-Aug-19 04:33N 37°57' E 023°35'1 0.9
2014-Aug-19 03:33N 37°57' E 023°34'0 0.0
2014-Aug-19 02:33N 37°57' E 023°34'0 0.0
2014-Aug-19 01:33N 37°57' E 023°34'0 0.0
2014-Aug-19 00:32N 37°57' E 023°34'0 0.0
2014-Aug-18 23:33N 37°57' E 023°34'0 0.0
2014-Aug-18 22:33N 37°57' E 023°34'0 0.0
2014-Aug-18 21:33N 37°57' E 023°34'0 0.0
2014-Aug-18 20:33N 37°57' E 023°34'0 0.0
2014-Aug-18 19:33N 37°57' E 023°34'2 2.1
2014-Aug-18 18:33N 37°57' E 023°36'2 1.6
2014-Aug-18 17:33N 37°57' E 023°38'2 1.6
2014-Aug-18 16:33N 37°57' E 023°36'  

Dump ship's entire track history